Time;durP1;ratioP1;P1;durP2;ratioP2;P2;SDS_P1;SDS_P2;PMS_P1;PMS_P2;Temp;Humidity;BMP_temperature;BMP_pressure;BME280_temperature;BME280_humidity;BME280_pressure;Samples;Min_cycle;Max_cycle;Signal;HPM_P1;HPM_P2
2021/07/19 00:01:36;;;;;;;29.00;16.17;;;;;;;23.75;81.54;98850.16;3476858;28;20076;-42
2021/07/19 00:03:18;;;;;;;27.08;14.98;;;;;;;23.73;81.36;98845.00;3481965;28;20130;-42
2021/07/19 00:04:59;;;;;;;26.80;15.45;;;;;;;23.72;81.67;98846.75;3472200;28;20072;-42
2021/07/19 00:06:41;;;;;;;30.30;17.10;;;;;;;23.72;81.46;98848.56;3471212;28;20085;-42
2021/07/19 00:08:22;;;;;;;29.48;16.13;;;;;;;23.71;81.33;98850.34;3470060;28;20520;-43
2021/07/19 00:10:06;;;;;;;40.95;17.83;;;;;;;23.70;81.22;98850.44;3473175;28;20100;-42
2021/07/19 00:11:49;;;;;;;27.98;15.90;;;;;;;23.67;81.06;98846.16;3483339;28;20191;-42
2021/07/19 00:13:31;;;;;;;37.88;16.10;;;;;;;23.63;81.39;98839.31;3474904;28;20091;-42
2021/07/19 00:15:15;;;;;;;26.98;15.73;;;;;;;23.60;81.99;98842.13;3470342;28;20454;-42
2021/07/19 00:16:57;;;;;;;30.85;15.82;;;;;;;23.57;81.82;98844.06;3470893;28;20089;-42
2021/07/19 00:18:39;;;;;;;31.98;17.40;;;;;;;23.55;81.94;98843.31;3472752;28;20103;-42
2021/07/19 00:20:21;;;;;;;35.17;17.23;;;;;;;23.52;82.17;98834.59;3469574;28;20077;-42
2021/07/19 00:22:03;;;;;;;42.22;17.35;;;;;;;23.51;81.75;98832.88;3470714;28;20088;-42
2021/07/19 00:23:44;;;;;;;53.83;18.20;;;;;;;23.49;82.17;98829.44;3469357;28;20547;-42
2021/07/19 00:25:25;;;;;;;36.13;16.90;;;;;;;23.48;82.71;98829.53;3477172;28;20134;-42
2021/07/19 00:27:07;;;;;;;36.03;17.27;;;;;;;23.46;82.75;98831.41;3482172;28;20064;-42
2021/07/19 00:28:49;;;;;;;34.53;16.83;;;;;;;23.45;82.98;98833.22;3479509;28;20076;-42
2021/07/19 00:30:32;;;;;;;35.30;17.17;;;;;;;23.45;82.70;98824.41;3481183;28;20091;-42
2021/07/19 00:32:13;;;;;;;41.85;17.05;;;;;;;23.43;82.61;98829.78;3469353;28;20049;-42
2021/07/19 00:33:54;;;;;;;30.95;15.70;;;;;;;23.40;83.02;98824.66;3472837;28;20088;-42
2021/07/19 00:35:36;;;;;;;34.95;16.25;;;;;;;23.41;82.84;98823.69;3469185;28;20510;-42
2021/07/19 00:37:17;;;;;;;41.58;16.63;;;;;;;23.42;83.70;98830.72;3471659;28;20084;-42
2021/07/19 00:38:59;;;;;;;36.28;17.02;;;;;;;23.40;82.82;98827.28;3476824;28;20049;-42
2021/07/19 00:40:40;;;;;;;31.70;15.75;;;;;;;23.39;82.99;98822.91;3470978;28;20104;-42
2021/07/19 00:42:22;;;;;;;30.92;16.23;;;;;;;23.39;83.48;98816.78;3472098;28;20136;-42
2021/07/19 00:44:05;;;;;;;28.95;16.52;;;;;;;23.37;83.69;98816.84;3469471;28;20084;-42
2021/07/19 00:45:46;;;;;;;31.67;16.25;;;;;;;23.34;84.30;98814.38;3471413;28;20053;-42
2021/07/19 00:47:28;;;;;;;30.10;16.63;;;;;;;23.36;84.30;98824.88;3469133;28;20087;-42
2021/07/19 00:49:10;;;;;;;28.30;16.38;;;;;;;23.34;84.09;98815.25;3476671;28;20065;-42
2021/07/19 00:50:52;;;;;;;31.65;16.70;;;;;;;23.31;84.15;98817.19;3481931;28;20052;-42
2021/07/19 00:52:33;;;;;;;31.50;16.17;;;;;;;23.30;83.81;98826.06;3474738;28;20045;-42
2021/07/19 00:54:22;;;;;;;31.45;16.05;;;;;;;23.28;84.38;98820.00;3472047;28;20053;-42
2021/07/19 00:56:06;;;;;;;32.97;17.98;;;;;;;23.25;84.58;98831.53;3468803;28;20060;-42
2021/07/19 00:57:49;;;;;;;37.17;16.98;;;;;;;23.24;84.41;98821.06;3473252;28;20529;-42
2021/07/19 00:59:34;;;;;;;30.90;16.50;;;;;;;23.19;83.95;98825.75;3482636;28;20181;-42
2021/07/19 01:01:17;;;;;;;39.72;18.25;;;;;;;23.20;84.57;98817.72;3470634;28;20122;-42
2021/07/19 01:03:00;;;;;;;34.03;16.45;;;;;;;23.21;84.21;98826.50;3470495;28;20049;-42
2021/07/19 01:04:42;;;;;;;35.03;15.93;;;;;;;23.21;83.93;98826.50;3469708;28;20514;-42
2021/07/19 01:06:24;;;;;;;28.80;16.30;;;;;;;23.24;83.90;98813.13;3471980;28;20088;-42
2021/07/19 01:08:06;;;;;;;35.05;16.73;;;;;;;23.24;83.74;98815.78;3482513;28;20084;-42
2021/07/19 01:09:48;;;;;;;34.60;15.18;;;;;;;23.25;83.35;98820.13;3478152;28;20076;-42
2021/07/19 01:11:30;;;;;;;32.50;15.80;;;;;;;23.24;84.04;98813.97;3482323;28;20072;-42
2021/07/19 01:13:12;;;;;;;30.90;15.00;;;;;;;23.26;83.91;98808.59;3471794;28;20111;-42
2021/07/19 01:14:53;;;;;;;29.90;15.95;;;;;;;23.24;84.05;98806.03;3470658;28;20510;-42
2021/07/19 01:16:35;;;;;;;26.67;15.60;;;;;;;23.24;83.88;98813.13;3481234;28;20049;-42
2021/07/19 01:18:17;;;;;;;32.63;15.85;;;;;;;23.25;83.70;98815.66;3478340;28;20131;-42
2021/07/19 01:19:58;;;;;;;25.10;15.00;;;;;;;23.24;84.55;98819.28;3468900;28;20080;-42
2021/07/19 01:21:58;;;;;;;31.23;16.27;;;;;;;23.23;84.07;98814.06;3475689;28;20171;-42
2021/07/19 01:24:12;;;;;;;24.63;15.10;;;;;;;23.23;84.13;98814.91;3480620;28;20103;-42
2021/07/19 01:26:01;;;;;;;27.67;15.27;;;;;;;23.23;83.70;98817.53;3468858;28;20481;-42
2021/07/19 01:28:02;;;;;;;21.58;14.90;;;;;;;23.23;83.21;98808.75;3476079;28;20148;-42
2021/07/19 01:29:46;;;;;;;30.23;14.98;;;;;;;23.19;83.61;98813.34;3480499;28;20139;-42
2021/07/19 01:31:30;;;;;;;30.70;15.98;;;;;;;23.16;84.27;98810.84;3468566;28;20134;-42
2021/07/19 01:33:14;;;;;;;27.35;15.70;;;;;;;23.15;84.49;98807.38;3472352;28;20668;-42
2021/07/19 01:34:58;;;;;;;29.67;16.13;;;;;;;23.14;84.55;98810.94;3482440;28;20055;-42
2021/07/19 01:36:44;;;;;;;25.40;15.05;;;;;;;23.12;84.87;98815.47;3479848;28;20524;-42
2021/07/19 01:38:26;;;;;;;29.00;15.90;;;;;;;23.11;84.94;98815.53;3480436;28;20154;-42
2021/07/19 01:40:09;;;;;;;36.47;16.45;;;;;;;23.09;84.52;98818.25;3471171;28;20053;-42
2021/07/19 01:41:51;;;;;;;29.35;16.13;;;;;;;23.09;84.87;98810.31;3470419;28;20140;-42
2021/07/19 01:43:34;;;;;;;33.80;16.30;;;;;;;23.09;85.33;98817.41;3482106;28;20099;-42
2021/07/19 01:45:16;;;;;;;32.25;16.20;;;;;;;23.09;84.71;98820.91;3474856;28;20072;-42
2021/07/19 01:46:59;;;;;;;29.63;15.48;;;;;;;23.08;84.73;98813.06;3468660;28;20077;-42
2021/07/19 01:48:42;;;;;;;35.10;15.70;;;;;;;23.09;84.72;98818.25;3469733;28;20139;-42
2021/07/19 01:50:25;;;;;;;32.43;15.77;;;;;;;23.06;84.78;98826.38;3470238;28;20142;-42
2021/07/19 01:52:08;;;;;;;36.00;16.08;;;;;;;23.05;84.97;98822.00;3480708;28;20060;-42
2021/07/19 01:53:50;;;;;;;31.67;15.50;;;;;;;23.00;84.56;98821.38;3470961;28;20060;-42
2021/07/19 01:55:32;;;;;;;29.80;16.03;;;;;;;22.98;84.97;98817.13;3468511;28;20148;-42
2021/07/19 01:57:15;;;;;;;31.60;14.63;;;;;;;22.95;84.84;98818.97;3471925;28;20301;-42
2021/07/19 01:58:59;;;;;;;31.13;15.07;;;;;;;22.93;84.79;98828.75;3468511;28;20077;-42
2021/07/19 02:00:41;;;;;;;;;;;;;;;22.95;84.52;98824.28;3471714;28;20175;-42
2021/07/19 02:02:23;;;;;;;23.75;13.65;;;;;;;22.93;84.70;98819.97;3470893;28;19929;-43
2021/07/19 02:04:05;;;;;;;35.25;16.67;;;;;;;22.91;85.00;98814.75;3469034;28;20086;-42
2021/07/19 02:05:49;;;;;;;28.83;15.13;;;;;;;22.91;85.42;98821.84;3471665;28;20053;-42
2021/07/19 02:07:31;;;;;;;29.48;15.93;;;;;;;22.91;85.92;98822.69;3482230;28;20107;-42
2021/07/19 02:09:16;;;;;;;27.25;14.73;;;;;;;22.93;85.55;98817.34;3473908;28;20127;-42
2021/07/19 02:10:58;;;;;;;26.65;14.85;;;;;;;22.95;85.50;98826.03;3467796;28;20532;-42
2021/07/19 02:12:40;;;;;;;31.08;15.13;;;;;;;22.93;85.63;98820.81;3478505;28;20080;-42
2021/07/19 02:14:22;;;;;;;33.83;16.70;;;;;;;22.91;85.09;98813.91;3478376;28;20545;-42
2021/07/19 02:16:04;;;;;;;28.08;15.68;;;;;;;22.92;85.31;98824.41;3481440;28;20468;-42
2021/07/19 02:17:49;;;;;;;28.05;16.60;;;;;;;22.93;85.76;98823.47;3477398;28;20426;-41
2021/07/19 02:19:30;;;;;;;26.08;16.45;;;;;;;22.91;85.15;98825.34;3482020;28;20167;-42
2021/07/19 02:21:12;;;;;;;26.80;15.27;;;;;;;22.90;84.70;98825.41;3477403;28;20084;-42
2021/07/19 02:22:55;;;;;;;28.83;15.98;;;;;;;22.88;85.36;98833.44;3480462;28;20077;-42
2021/07/19 02:24:37;;;;;;;34.10;14.95;;;;;;;22.87;85.49;98831.72;3478419;28;20045;-42
2021/07/19 02:26:20;;;;;;;29.98;15.27;;;;;;;22.86;85.47;98831.81;3478262;28;20076;-42
2021/07/19 02:28:02;;;;;;;27.30;14.55;;;;;;;22.86;85.37;98829.16;3467915;28;20156;-42
2021/07/19 02:29:44;;;;;;;25.88;14.48;;;;;;;22.86;85.55;98835.28;3475640;28;20049;-42
2021/07/19 02:31:27;;;;;;;32.58;15.27;;;;;;;22.87;85.86;98834.38;3481899;28;20103;-42
2021/07/19 02:33:11;;;;;;;26.88;15.93;;;;;;;22.88;85.53;98835.22;3471747;28;20523;-42
2021/07/19 02:34:53;;;;;;;25.08;14.48;;;;;;;22.86;85.83;98835.28;3469494;28;20077;-42
2021/07/19 02:36:35;;;;;;;30.92;15.90;;;;;;;22.87;85.83;98839.66;3479295;28;20083;-42
2021/07/19 02:38:18;;;;;;;32.20;15.53;;;;;;;22.86;85.88;98843.22;3477479;28;20061;-42
2021/07/19 02:39:59;;;;;;;22.83;15.43;;;;;;;22.86;85.91;98840.59;3481967;28;20097;-42
2021/07/19 02:41:42;;;;;;;27.10;16.02;;;;;;;22.89;86.69;98839.59;3477541;28;20395;-42
2021/07/19 02:43:25;;;;;;;26.90;15.35;;;;;;;22.89;86.15;98842.25;3481109;28;20532;-42
2021/07/19 02:45:10;;;;;;;29.00;16.25;;;;;;;22.90;86.17;98841.28;3472557;28;20100;-42
2021/07/19 02:46:54;;;;;;;29.25;15.55;;;;;;;22.92;86.27;98850.88;3472902;28;20080;-42
2021/07/19 02:48:36;;;;;;;;;;;;;;;22.94;85.97;98845.50;3470426;28;20202;-42
2021/07/19 02:50:22;;;;;;;30.95;16.58;;;;;;;22.94;86.77;98843.72;3473917;28;19925;-42
2021/07/19 02:52:05;;;;;;;32.50;17.00;;;;;;;22.96;86.62;98849.78;3483826;28;20085;-42
2021/07/19 02:53:50;;;;;;;32.13;16.50;;;;;;;22.96;86.47;98847.13;3476903;28;20495;-42
2021/07/19 02:55:33;;;;;;;26.35;15.88;;;;;;;23.00;86.60;98853.13;3482631;28;20476;-42
2021/07/19 02:57:16;;;;;;;28.92;15.65;;;;;;;23.02;86.60;98851.25;3480370;28;20550;-42
2021/07/19 02:58:58;;;;;;;28.10;15.25;;;;;;;23.04;86.55;98854.69;3480255;28;20689;-42
2021/07/19 03:00:39;;;;;;;26.33;16.02;;;;;;;23.09;86.94;98859.72;3470271;28;20115;-42
2021/07/19 03:02:25;;;;;;;27.67;15.55;;;;;;;23.12;86.87;98854.28;3473794;28;20055;-42
2021/07/19 03:04:07;;;;;;;28.85;16.75;;;;;;;23.15;86.98;98856.78;3470243;28;20128;-42
2021/07/19 03:05:55;;;;;;;24.65;15.35;;;;;;;23.20;87.11;98856.53;3473561;28;20135;-42
2021/07/19 03:07:38;;;;;;;28.55;15.93;;;;;;;23.23;87.26;98851.09;3472295;28;20045;-42
2021/07/19 03:09:20;;;;;;;29.95;17.83;;;;;;;23.27;87.21;98860.63;3471185;28;20510;-42
2021/07/19 03:11:07;;;;;;;29.95;16.00;;;;;;;23.30;86.95;98852.53;3473556;28;20064;-42
2021/07/19 03:12:51;;;;;;;26.27;16.52;;;;;;;23.32;87.00;98856.81;3483768;28;20044;-42
2021/07/19 03:14:36;;;;;;;35.47;17.65;;;;;;;23.38;86.88;98863.59;3479688;28;20081;-42
2021/07/19 03:16:20;;;;;;;30.38;18.35;;;;;;;23.40;85.96;98867.00;3482672;28;20076;-42
2021/07/19 03:18:05;;;;;;;35.67;20.42;;;;;;;23.46;85.97;98871.97;3480240;28;20589;-42
2021/07/19 03:19:47;;;;;;;35.35;21.85;;;;;;;23.52;84.06;98860.22;3478032;28;20526;-42
2021/07/19 03:21:30;;;;;;;30.77;18.98;;;;;;;23.58;83.81;98865.19;3483805;28;20075;-42
2021/07/19 03:23:16;;;;;;;33.65;21.25;;;;;;;23.68;83.16;98878.81;3476001;28;20151;-42
2021/07/19 03:24:59;;;;;;;36.72;21.00;;;;;;;23.77;83.88;98874.81;3470053;28;20204;-42
2021/07/19 03:26:42;;;;;;;31.08;19.40;;;;;;;23.81;82.16;98877.19;3479569;28;20517;-42
2021/07/19 03:28:24;;;;;;;32.70;19.90;;;;;;;23.92;82.90;98873.97;3480818;28;20140;-43
2021/07/19 03:30:06;;;;;;;34.20;21.92;;;;;;;24.00;83.53;98876.22;3470822;28;20148;-43
2021/07/19 03:31:49;;;;;;;36.58;20.70;;;;;;;24.06;82.00;98884.69;3473275;28;20115;-43
2021/07/19 03:33:32;;;;;;;35.08;20.67;;;;;;;24.12;82.91;98885.31;3483655;28;20053;-43
2021/07/19 03:35:16;;;;;;;33.10;21.30;;;;;;;24.19;83.05;98890.22;3479146;28;20513;-42
2021/07/19 03:36:58;;;;;;;35.80;22.02;;;;;;;24.24;82.61;98895.22;3482877;28;20525;-42
2021/07/19 03:38:42;;;;;;;29.58;19.17;;;;;;;24.28;77.87;98889.69;3480274;28;20052;-43
2021/07/19 03:40:24;;;;;;;29.05;19.30;;;;;;;24.35;76.80;98892.88;3481526;28;20081;-42
2021/07/19 03:42:08;;;;;;;32.05;19.58;;;;;;;24.43;79.32;98892.44;3469838;28;20056;-43
2021/07/19 03:43:50;;;;;;;32.83;20.80;;;;;;;24.51;80.07;98884.91;3471849;28;20085;-43
2021/07/19 03:45:32;;;;;;;34.08;20.83;;;;;;;24.57;80.43;98884.56;3469874;28;20516;-42
2021/07/19 03:47:14;;;;;;;30.10;19.80;;;;;;;24.65;79.11;98886.78;3477871;28;20136;-43
2021/07/19 03:48:57;;;;;;;31.98;19.40;;;;;;;24.72;78.52;98890.81;3481957;28;20084;-43
2021/07/19 03:50:39;;;;;;;31.15;18.63;;;;;;;24.79;77.25;98891.28;3471465;28;20514;-43
2021/07/19 03:52:21;;;;;;;31.83;18.48;;;;;;;24.85;76.56;98886.50;3469188;28;20048;-43
2021/07/19 03:54:03;;;;;;;38.33;19.73;;;;;;;24.94;76.55;98895.75;3469905;28;20441;-43
2021/07/19 03:55:45;;;;;;;28.40;17.88;;;;;;;25.01;76.79;98886.47;3474565;28;20136;-42
2021/07/19 03:57:28;;;;;;;32.67;17.73;;;;;;;25.09;76.60;98886.06;3483449;28;20088;-43
2021/07/19 03:59:12;;;;;;;34.88;18.35;;;;;;;25.16;76.06;98891.81;3479287;28;20111;-42
2021/07/19 04:00:56;;;;;;;29.05;17.38;;;;;;;25.23;75.60;98880.78;3481355;28;20044;-42
2021/07/19 04:02:39;;;;;;;33.05;19.73;;;;;;;25.32;76.89;98886.47;3480872;28;20055;-42
2021/07/19 04:04:31;;;;;;;31.37;18.77;;;;;;;25.39;75.43;98886.03;3478777;28;20517;-42
2021/07/19 04:06:14;;;;;;;28.83;16.83;;;;;;;25.47;75.64;98882.91;3483321;28;20049;-42
2021/07/19 04:07:56;;;;;;;;;;;;;;;25.56;76.01;98886.84;3479191;28;20045;-43
2021/07/19 04:09:38;;;;;;;28.00;16.85;;;;;;;25.61;75.14;98882.09;3482434;28;19947;-42
2021/07/19 04:11:20;;;;;;;26.13;17.83;;;;;;;25.70;75.13;98878.88;3472165;28;20089;-42
2021/07/19 04:13:06;;;;;;;30.83;19.13;;;;;;;25.75;74.75;98881.25;3472547;28;20045;-42
2021/07/19 04:14:48;;;;;;;29.58;17.30;;;;;;;25.83;73.99;98876.34;3469657;28;20088;-43
2021/07/19 04:16:29;;;;;;;28.85;16.00;;;;;;;25.90;73.56;98877.66;3472798;28;20080;-42
2021/07/19 04:18:11;;;;;;;24.08;16.40;;;;;;;25.98;73.94;98885.16;3469357;28;20088;-43
2021/07/19 04:19:53;;;;;;;28.48;17.83;;;;;;;26.06;73.28;98885.53;3476668;28;20539;-43
2021/07/19 04:21:35;;;;;;;30.00;18.25;;;;;;;26.14;73.38;98888.53;3482100;28;20072;-44
2021/07/19 04:23:16;;;;;;;27.67;17.98;;;;;;;26.21;73.87;98886.34;3475691;28;20075;-43
2021/07/19 04:24:58;;;;;;;28.70;18.05;;;;;;;26.30;73.44;98884.94;3479554;28;20131;-43
2021/07/19 04:26:40;;;;;;;22.95;17.02;;;;;;;26.38;73.36;98890.66;3469516;28;20083;-43
2021/07/19 04:28:23;;;;;;;30.15;18.02;;;;;;;26.44;72.56;98876.94;3474238;28;20107;-44
2021/07/19 04:30:06;;;;;;;27.88;18.77;;;;;;;26.51;71.97;98883.56;3482956;28;20567;-43
2021/07/19 04:31:52;;;;;;;30.48;17.98;;;;;;;26.59;71.92;98879.56;3472272;28;20080;-43
2021/07/19 04:33:33;;;;;;;28.55;17.25;;;;;;;26.66;72.26;98878.19;3470618;28;20083;-43
2021/07/19 04:35:18;;;;;;;25.45;17.40;;;;;;;26.73;72.66;98875.06;3480282;28;20088;-43
2021/07/19 04:37:01;;;;;;;27.30;17.38;;;;;;;26.81;72.88;98879.00;3478179;28;20095;-42
2021/07/19 04:38:43;;;;;;;26.20;16.10;;;;;;;26.87;73.50;98875.94;3469419;28;20061;-43
2021/07/19 04:40:26;;;;;;;28.42;15.77;;;;;;;26.95;72.77;98881.66;3472691;28;20055;-44
2021/07/19 04:42:10;;;;;;;32.67;17.10;;;;;;;27.03;73.32;98878.47;3469703;28;20057;-43
2021/07/19 04:43:51;;;;;;;26.88;16.02;;;;;;;27.10;73.64;98877.09;3471991;28;20529;-44
2021/07/19 04:45:32;;;;;;;34.00;16.90;;;;;;;27.18;73.46;98877.44;3470787;28;20136;-44
2021/07/19 04:47:14;;;;;;;25.15;16.27;;;;;;;27.24;72.78;98882.38;3481219;28;20129;-43
2021/07/19 04:48:55;;;;;;;28.90;16.25;;;;;;;27.30;72.08;98879.25;3478640;28;20049;-43
2021/07/19 04:50:37;;;;;;;31.75;17.52;;;;;;;27.36;72.16;98879.81;3469458;28;20164;-43
2021/07/19 04:52:19;;;;;;;26.80;16.52;;;;;;;27.41;72.15;98872.34;3472845;28;20083;-43
2021/07/19 04:54:01;;;;;;;27.83;16.58;;;;;;;27.49;72.43;98870.03;3469362;28;20088;-43
2021/07/19 04:55:45;;;;;;;24.45;15.10;;;;;;;27.57;71.93;98877.47;3478723;28;20535;-44
2021/07/19 04:57:28;;;;;;;27.65;15.60;;;;;;;27.65;71.71;98870.69;3479681;28;20073;-43
2021/07/19 04:59:12;;;;;;;26.63;16.73;;;;;;;27.76;71.77;98869.09;3481616;28;20537;-44
2021/07/19 05:00:56;;;;;;;22.67;15.13;;;;;;;27.84;70.95;98867.59;3478237;28;20045;-43
2021/07/19 05:02:40;;;;;;;26.80;16.13;;;;;;;27.91;70.69;98867.16;3482786;28;20045;-43
2021/07/19 05:04:25;;;;;;;27.35;15.20;;;;;;;28.00;70.06;98874.50;3478303;28;20044;-43
2021/07/19 05:06:08;;;;;;;27.73;15.85;;;;;;;28.07;68.64;98866.91;3480712;28;20052;-43
2021/07/19 05:07:50;;;;;;;29.50;16.75;;;;;;;28.14;68.61;98868.16;3479174;28;20053;-43
2021/07/19 05:09:33;;;;;;;25.98;15.90;;;;;;;28.20;68.58;98860.59;3479925;28;20045;-43
2021/07/19 05:11:16;;;;;;;29.98;15.10;;;;;;;28.22;67.40;98857.81;3469005;28;20100;-43
2021/07/19 05:12:58;;;;;;;26.23;15.48;;;;;;;28.29;67.53;98860.94;3474373;28;20084;-43
2021/07/19 05:14:40;;;;;;;29.80;15.43;;;;;;;28.33;67.22;98871.25;3482687;28;20076;-42
2021/07/19 05:16:21;;;;;;;24.98;15.50;;;;;;;28.36;66.48;98870.19;3478140;28;20048;-44
2021/07/19 05:18:03;;;;;;;28.20;14.50;;;;;;;28.40;66.76;98869.84;3480569;28;20510;-44
2021/07/19 05:19:45;;;;;;;24.58;14.05;;;;;;;28.46;66.25;98875.69;3479945;28;20577;-42
2021/07/19 05:21:27;;;;;;;29.02;14.43;;;;;;;28.53;65.61;98866.28;3477917;28;20052;-42
2021/07/19 05:23:08;;;;;;;26.92;14.68;;;;;;;28.63;65.99;98866.47;3468836;28;20076;-42
2021/07/19 05:24:55;;;;;;;31.38;15.15;;;;;;;28.71;64.26;98870.25;3474339;28;20399;-42
2021/07/19 05:26:37;;;;;;;27.15;14.38;;;;;;;28.76;63.01;98868.09;3482393;28;20080;-43
2021/07/19 05:28:19;;;;;;;30.35;14.82;;;;;;;28.86;63.94;98870.09;3478178;28;20092;-42
2021/07/19 05:30:01;;;;;;;23.75;14.65;;;;;;;28.96;63.39;98868.47;3480431;28;20080;-42
2021/07/19 05:31:42;;;;;;;24.23;14.75;;;;;;;28.97;62.82;98867.47;3470148;28;20058;-42
2021/07/19 05:33:25;;;;;;;44.42;14.88;;;;;;;29.01;62.52;98866.31;3471961;28;20506;-43
2021/07/19 05:35:06;;;;;;;21.55;14.00;;;;;;;29.05;62.29;98869.59;3469039;28;20052;-42
2021/07/19 05:36:48;;;;;;;26.52;14.90;;;;;;;29.08;61.54;98869.34;3475152;28;20053;-42
2021/07/19 05:38:30;;;;;;;26.40;14.05;;;;;;;29.10;61.43;98870.94;3482099;28;20076;-43
2021/07/19 05:40:13;;;;;;;24.17;13.82;;;;;;;29.11;61.29;98866.44;3471883;28;20139;-42
2021/07/19 05:41:54;;;;;;;27.92;14.65;;;;;;;29.17;61.72;98866.00;3468882;28;20057;-42
2021/07/19 05:43:36;;;;;;;28.38;14.50;;;;;;;29.26;61.46;98875.13;3480595;28;20087;-42
2021/07/19 05:45:17;;;;;;;21.98;14.10;;;;;;;29.33;60.88;98876.34;3477856;28;20049;-42
2021/07/19 05:46:59;;;;;;;21.30;14.48;;;;;;;29.42;61.31;98872.97;3482241;28;20529;-43
2021/07/19 05:48:41;;;;;;;21.73;14.82;;;;;;;29.48;60.67;98872.47;3474413;28;20049;-42
2021/07/19 05:50:23;;;;;;;29.55;14.45;;;;;;;29.55;60.46;98865.75;3468982;28;20103;-42
2021/07/19 05:52:05;;;;;;;26.35;14.02;;;;;;;29.58;60.03;98864.63;3470422;28;20088;-42
2021/07/19 05:53:46;;;;;;;21.45;14.02;;;;;;;29.66;59.30;98866.69;3469595;28;20053;-42
2021/07/19 05:55:29;;;;;;;21.92;13.57;;;;;;;29.70;59.93;98861.00;3469577;28;20407;-42
2021/07/19 05:57:10;;;;;;;25.48;13.88;;;;;;;29.81;59.53;98862.84;3472060;28;20134;-43
2021/07/19 05:58:52;;;;;;;26.05;14.60;;;;;;;29.86;58.11;98862.47;3482291;28;20049;-43
2021/07/19 06:00:33;;;;;;;25.25;13.82;;;;;;;29.94;59.54;98862.72;3474669;28;20056;-43
2021/07/19 06:02:17;;;;;;;27.80;14.43;;;;;;;30.03;58.46;98862.00;3468743;28;20136;-42
2021/07/19 06:03:59;;;;;;;31.50;14.88;;;;;;;30.10;58.50;98865.00;3478065;28;20049;-42
2021/07/19 06:05:41;;;;;;;31.92;14.63;;;;;;;30.19;58.58;98866.13;3479223;28;20526;-43
2021/07/19 06:07:23;;;;;;;33.05;14.70;;;;;;;30.27;57.92;98861.84;3480894;28;20053;-43
2021/07/19 06:09:04;;;;;;;31.27;14.38;;;;;;;30.35;57.04;98858.56;3475070;28;20115;-44
2021/07/19 06:10:46;;;;;;;29.60;14.75;;;;;;;30.41;57.07;98866.09;3468596;28;20107;-43
2021/07/19 06:12:27;;;;;;;22.92;13.90;;;;;;;30.46;56.20;98866.56;3475463;28;20041;-43
2021/07/19 06:14:08;;;;;;;25.73;13.43;;;;;;;30.50;56.63;98870.69;3480706;28;20501;-43
2021/07/19 06:15:50;;;;;;;27.67;14.40;;;;;;;30.59;56.56;98878.94;3469614;28;20148;-43
2021/07/19 06:17:33;;;;;;;27.00;14.68;;;;;;;30.71;55.80;98872.59;3476210;28;20053;-43
2021/07/19 06:19:14;;;;;;;32.10;14.75;;;;;;;30.79;55.65;98878.19;3469133;28;20053;-43
2021/07/19 06:20:55;;;;;;;30.60;14.82;;;;;;;30.90;55.13;98882.66;3476136;28;20128;-43
2021/07/19 06:22:39;;;;;;;27.13;14.02;;;;;;;31.00;56.26;98880.03;3484306;28;20540;-43
2021/07/19 06:24:20;;;;;;;21.73;13.90;;;;;;;31.09;54.77;98879.31;3480056;28;20127;-43
2021/07/19 06:26:01;;;;;;;23.45;13.90;;;;;;;31.21;54.17;98882.75;3484097;28;20076;-43
2021/07/19 06:27:43;;;;;;;27.65;13.80;;;;;;;31.27;54.13;98879.56;3473296;28;20085;-43
2021/07/19 06:29:24;;;;;;;19.70;14.20;;;;;;;31.35;53.61;98887.81;3472050;28;20077;-43
2021/07/19 06:31:06;;;;;;;21.48;13.38;;;;;;;31.38;52.28;98879.53;3470439;28;20092;-44
2021/07/19 06:32:47;;;;;;;48.03;14.07;;;;;;;31.43;53.02;98876.47;3473800;28;20141;-44
2021/07/19 06:34:29;;;;;;;21.75;14.52;;;;;;;31.47;53.14;98877.03;3484331;28;20493;-43
2021/07/19 06:36:10;;;;;;;21.15;13.15;;;;;;;31.51;52.74;98876.63;3475355;28;20141;-44
2021/07/19 06:37:52;;;;;;;54.42;15.52;;;;;;;31.55;52.92;98878.09;3470828;28;20053;-44
2021/07/19 06:39:34;;;;;;;21.85;14.10;;;;;;;31.61;53.41;98885.59;3473282;28;20084;-43
2021/07/19 06:41:15;;;;;;;26.98;15.07;;;;;;;31.70;53.09;98878.56;3472195;28;20132;-44
2021/07/19 06:42:57;;;;;;;27.58;14.25;;;;;;;31.78;53.27;98881.44;3482655;28;20056;-43
2021/07/19 06:44:38;;;;;;;26.00;15.27;;;;;;;31.87;52.15;98887.84;3479723;28;20130;-43
2021/07/19 06:46:19;;;;;;;25.08;14.50;;;;;;;32.00;53.22;98885.81;3484086;28;20092;-43
2021/07/19 06:48:01;;;;;;;26.67;13.75;;;;;;;32.11;53.54;98889.38;3479829;28;20049;-44
2021/07/19 06:49:42;;;;;;;20.63;13.82;;;;;;;32.24;51.85;98889.13;3483653;28;20418;-44
2021/07/19 06:51:24;;;;;;;25.13;14.98;;;;;;;32.35;52.93;98889.88;3473446;28;20049;-44
2021/07/19 06:53:06;;;;;;;33.92;14.98;;;;;;;32.41;51.17;98888.47;3469536;28;20045;-47
2021/07/19 06:54:47;;;;;;;23.60;14.32;;;;;;;32.48;50.59;98884.25;3471688;28;20087;-45
2021/07/19 06:56:31;;;;;;;25.35;14.60;;;;;;;32.55;49.88;98889.97;3473435;28;20116;-45
2021/07/19 06:58:12;;;;;;;25.23;14.90;;;;;;;32.62;50.19;98896.47;3483941;28;20087;-44
2021/07/19 06:59:55;;;;;;;25.65;15.02;;;;;;;32.69;49.86;98894.09;3479606;28;20603;-45
2021/07/19 07:01:36;;;;;;;27.40;14.30;;;;;;;32.82;51.08;98894.69;3483676;28;20052;-44
2021/07/19 07:03:18;;;;;;;21.98;14.48;;;;;;;32.92;50.31;98894.66;3479748;28;20053;-45
2021/07/19 07:04:59;;;;;;;24.52;14.85;;;;;;;32.98;48.89;98893.25;3481195;28;20045;-46
2021/07/19 07:06:41;;;;;;;23.98;14.75;;;;;;;32.96;49.47;98895.22;3482621;28;20083;-47
2021/07/19 07:08:23;;;;;;;24.10;14.07;;;;;;;33.01;49.57;98892.97;3479683;28;20136;-46
2021/07/19 07:10:06;;;;;;;20.55;14.45;;;;;;;33.06;50.00;98898.81;3484000;28;20057;-44
2021/07/19 07:11:47;;;;;;;21.77;14.45;;;;;;;33.14;48.65;98896.28;3479527;28;20072;-44
2021/07/19 07:13:29;;;;;;;25.55;13.30;;;;;;;33.27;48.80;98890.59;3483321;28;20076;-44
2021/07/19 07:15:11;;;;;;;22.15;13.68;;;;;;;33.35;48.33;98885.34;3479773;28;20052;-44
2021/07/19 07:16:52;;;;;;;25.55;14.45;;;;;;;33.33;48.33;98879.25;3481159;28;20080;-45
2021/07/19 07:18:33;;;;;;;21.48;13.90;;;;;;;33.39;48.62;98877.84;3470738;28;20049;-45
2021/07/19 07:20:15;;;;;;;23.70;13.73;;;;;;;33.47;47.72;98873.44;3473439;28;20050;-45
2021/07/19 07:21:56;;;;;;;22.42;14.55;;;;;;;33.51;47.04;98871.31;3483904;28;20076;-44
2021/07/19 07:23:38;;;;;;;26.75;15.20;;;;;;;33.55;47.19;98869.19;3476009;28;20503;-45
2021/07/19 07:25:20;;;;;;;33.25;14.70;;;;;;;33.56;46.70;98865.47;3470303;28;20529;-44
2021/07/19 07:27:05;;;;;;;24.30;14.55;;;;;;;33.59;46.99;98867.88;3479811;28;20145;-45
2021/07/19 07:28:47;;;;;;;24.23;15.35;;;;;;;33.65;46.93;98861.94;3480458;28;20136;-44
2021/07/19 07:30:28;;;;;;;22.77;15.48;;;;;;;33.59;46.72;98863.38;3470610;28;20073;-44
2021/07/19 07:32:09;;;;;;;32.13;15.95;;;;;;;33.62;46.98;98867.63;3473917;28;20164;-45
2021/07/19 07:33:52;;;;;;;22.48;15.43;;;;;;;33.67;47.12;98854.59;3483544;28;20057;-45
2021/07/19 07:35:40;;;;;;;23.65;14.60;;;;;;;33.70;46.55;98846.22;3477963;28;20099;-46
2021/07/19 07:37:21;;;;;;;22.75;14.77;;;;;;;33.79;46.84;98847.16;3482450;28;20502;-46
2021/07/19 07:39:04;;;;;;;29.85;16.02;;;;;;;33.79;46.54;98850.72;3480447;28;20446;-45
2021/07/19 07:40:48;;;;;;;29.25;15.60;;;;;;;33.93;46.11;98845.84;3478085;28;20065;-45
2021/07/19 07:42:29;;;;;;;31.23;15.07;;;;;;;33.94;46.21;98843.00;3469754;28;20107;-44
2021/07/19 07:44:10;;;;;;;28.48;15.60;;;;;;;34.03;46.33;98842.09;3474668;28;20525;-45
2021/07/19 07:45:52;;;;;;;26.27;14.85;;;;;;;34.15;45.44;98834.72;3483399;28;20494;-45
2021/07/19 07:47:34;;;;;;;27.27;16.20;;;;;;;34.24;46.37;98838.34;3473076;28;20144;-44
2021/07/19 07:49:15;;;;;;;29.27;16.50;;;;;;;34.33;44.88;98831.22;3470555;28;20111;-45
2021/07/19 07:50:56;;;;;;;25.65;16.73;;;;;;;34.37;44.70;98832.59;3471662;28;20077;-45
2021/07/19 07:52:39;;;;;;;37.33;17.63;;;;;;;34.39;45.18;98833.28;3472635;28;20053;-45